sensor_id;sensor_type;location;lat;lon;timestamp;pressure;altitude;pressure_sealevel;temperature;humidity
10988;BME280;5547;42.672;23.230;2023-12-07T00:00:49;92845.59;;;2.36;100.00
10988;BME280;5547;42.672;23.230;2023-12-07T00:03:50;92782.59;;;1.84;100.00
10988;BME280;5547;42.672;23.230;2023-12-07T00:06:50;92847.47;;;2.31;100.00
10988;BME280;5547;42.672;23.230;2023-12-07T00:09:50;92841.44;;;2.31;100.00
10988;BME280;5547;42.672;23.230;2023-12-07T00:12:52;92845.25;;;2.37;100.00
10988;BME280;5547;42.672;23.230;2023-12-07T00:15:52;92839.94;;;2.30;100.00
10988;BME280;5547;42.672;23.230;2023-12-07T00:18:52;92813.16;;;2.06;100.00
10988;BME280;5547;42.672;23.230;2023-12-07T00:21:53;92855.00;;;2.37;100.00
10988;BME280;5547;42.672;23.230;2023-12-07T00:24:53;92807.13;;;2.02;100.00
10988;BME280;5547;42.672;23.230;2023-12-07T00:27:54;92849.00;;;2.36;100.00
10988;BME280;5547;42.672;23.230;2023-12-07T00:30:54;92841.44;;;2.31;100.00
10988;BME280;5547;42.672;23.230;2023-12-07T00:33:55;92754.69;;;1.61;100.00
10988;BME280;5547;42.672;23.230;2023-12-07T00:36:55;92858.31;;;2.30;100.00
10988;BME280;5547;42.672;23.230;2023-12-07T00:39:56;92860.16;;;2.26;100.00
10988;BME280;5547;42.672;23.230;2023-12-07T00:42:57;92842.88;;;2.21;100.00
10988;BME280;5547;42.672;23.230;2023-12-07T00:45:57;92850.09;;;2.31;100.00
10988;BME280;5547;42.672;23.230;2023-12-07T00:48:58;92844.41;;;2.26;100.00
10988;BME280;5547;42.672;23.230;2023-12-07T00:51:58;92858.66;;;2.25;100.00
10988;BME280;5547;42.672;23.230;2023-12-07T00:54:59;92851.13;;;2.20;100.00
10988;BME280;5547;42.672;23.230;2023-12-07T00:57:59;92841.34;;;2.17;100.00
10988;BME280;5547;42.672;23.230;2023-12-07T01:01:01;92845.44;;;2.14;100.00
10988;BME280;5547;42.672;23.230;2023-12-07T01:04:02;92831.81;;;1.98;100.00
10988;BME280;5547;42.672;23.230;2023-12-07T01:07:02;92739.09;;;1.38;100.00
10988;BME280;5547;42.672;23.230;2023-12-07T01:10:03;92813.34;;;1.87;100.00
10988;BME280;5547;42.672;23.230;2023-12-07T01:13:04;92819.03;;;1.96;100.00
10988;BME280;5547;42.672;23.230;2023-12-07T01:16:05;92843.09;;;2.05;100.00
10988;BME280;5547;42.672;23.230;2023-12-07T01:19:06;92844.22;;;2.04;100.00
10988;BME280;5547;42.672;23.230;2023-12-07T01:22:07;92843.47;;;2.04;100.00
10988;BME280;5547;42.672;23.230;2023-12-07T01:25:07;92832.13;;;1.93;100.00
10988;BME280;5547;42.672;23.230;2023-12-07T01:28:08;92819.72;;;1.86;100.00
10988;BME280;5547;42.672;23.230;2023-12-07T01:31:09;92834.41;;;1.94;100.00
10988;BME280;5547;42.672;23.230;2023-12-07T01:34:10;92825.63;;;1.76;100.00
10988;BME280;5547;42.672;23.230;2023-12-07T01:37:10;92829.88;;;1.91;100.00
10988;BME280;5547;42.672;23.230;2023-12-07T01:40:11;92785.72;;;1.59;100.00
10988;BME280;5547;42.672;23.230;2023-12-07T01:43:11;92829.53;;;1.96;100.00
10988;BME280;5547;42.672;23.230;2023-12-07T01:46:12;92837.78;;;1.98;100.00
10988;BME280;5547;42.672;23.230;2023-12-07T01:49:13;92831.88;;;2.05;100.00
10988;BME280;5547;42.672;23.230;2023-12-07T01:52:13;92817.19;;;1.97;100.00
10988;BME280;5547;42.672;23.230;2023-12-07T01:55:14;92791.53;;;1.79;100.00
10988;BME280;5547;42.672;23.230;2023-12-07T01:58:17;92789.31;;;1.81;100.00
10988;BME280;5547;42.672;23.230;2023-12-07T02:01:18;92805.94;;;1.96;100.00
10988;BME280;5547;42.672;23.230;2023-12-07T02:04:18;92834.25;;;2.21;100.00
10988;BME280;5547;42.672;23.230;2023-12-07T02:07:19;92833.50;;;2.20;100.00
10988;BME280;5547;42.672;23.230;2023-12-07T02:10:19;92828.59;;;2.19;100.00
10988;BME280;5547;42.672;23.230;2023-12-07T02:13:20;92806.03;;;2.07;100.00
10988;BME280;5547;42.672;23.230;2023-12-07T02:19:55;92823.69;;;2.14;100.00
10988;BME280;5547;42.672;23.230;2023-12-07T02:23:01;92821.06;;;2.14;100.00
10988;BME280;5547;42.672;23.230;2023-12-07T02:26:06;92827.13;;;2.18;100.00
10988;BME280;5547;42.672;23.230;2023-12-07T02:29:08;92823.34;;;2.15;100.00
10988;BME280;5547;42.672;23.230;2023-12-07T02:32:09;92825.97;;;2.19;100.00
10988;BME280;5547;42.672;23.230;2023-12-07T02:35:10;92824.09;;;2.19;100.00
10988;BME280;5547;42.672;23.230;2023-12-07T02:38:14;92822.25;;;2.20;100.00
10988;BME280;5547;42.672;23.230;2023-12-07T02:41:18;92820.41;;;2.24;100.00
10988;BME280;5547;42.672;23.230;2023-12-07T02:44:18;92824.94;;;2.27;100.00
10988;BME280;5547;42.672;23.230;2023-12-07T02:47:19;92800.44;;;2.08;100.00
10988;BME280;5547;42.672;23.230;2023-12-07T02:50:20;92823.41;;;2.22;100.00
10988;BME280;5547;42.672;23.230;2023-12-07T02:53:20;92780.06;;;1.95;100.00
10988;BME280;5547;42.672;23.230;2023-12-07T02:56:21;92823.03;;;2.24;100.00
10988;BME280;5547;42.672;23.230;2023-12-07T02:59:21;92821.06;;;2.14;100.00
10988;BME280;5547;42.672;23.230;2023-12-07T03:02:21;92799.84;;;1.85;100.00
10988;BME280;5547;42.672;23.230;2023-12-07T03:05:22;92799.06;;;1.81;100.00
10988;BME280;5547;42.672;23.230;2023-12-07T03:08:23;92802.84;;;1.87;100.00
10988;BME280;5547;42.672;23.230;2023-12-07T03:11:24;92796.03;;;1.79;100.00
10988;BME280;5547;42.672;23.230;2023-12-07T03:14:24;92808.47;;;1.85;100.00
10988;BME280;5547;42.672;23.230;2023-12-07T03:17:25;92820.91;;;1.92;100.00
10988;BME280;5547;42.672;23.230;2023-12-07T03:20:25;92802.03;;;1.76;100.00
10988;BME280;5547;42.672;23.230;2023-12-07T03:23:26;92812.56;;;1.83;100.00
10988;BME280;5547;42.672;23.230;2023-12-07T03:26:26;92784.25;;;1.58;100.00
10988;BME280;5547;42.672;23.230;2023-12-07T03:29:27;92832.47;;;1.91;100.00
10988;BME280;5547;42.672;23.230;2023-12-07T03:32:27;92801.94;;;1.68;100.00
10988;BME280;5547;42.672;23.230;2023-12-07T03:35:28;92844.56;;;1.99;100.00
10988;BME280;5547;42.672;23.230;2023-12-07T03:38:28;92837.09;;;2.01;100.00
10988;BME280;5547;42.672;23.230;2023-12-07T03:41:28;92784.31;;;1.65;100.00
10988;BME280;5547;42.672;23.230;2023-12-07T03:44:29;92838.56;;;1.99;100.00
10988;BME280;5547;42.672;23.230;2023-12-07T03:47:29;92841.16;;;1.95;100.00
10988;BME280;5547;42.672;23.230;2023-12-07T03:50:29;92801.56;;;1.70;100.00
10988;BME280;5547;42.672;23.230;2023-12-07T03:53:30;92838.13;;;1.93;100.00
10988;BME280;5547;42.672;23.230;2023-12-07T03:56:30;92779.75;;;1.59;100.00
10988;BME280;5547;42.672;23.230;2023-12-07T03:59:31;92839.66;;;1.94;100.00
10988;BME280;5547;42.672;23.230;2023-12-07T04:02:32;92803.13;;;1.75;100.00
10988;BME280;5547;42.672;23.230;2023-12-07T04:05:33;92795.53;;;1.66;100.00
10988;BME280;5547;42.672;23.230;2023-12-07T04:08:34;92850.59;;;2.03;100.00
10988;BME280;5547;42.672;23.230;2023-12-07T04:11:34;92803.22;;;1.85;100.00
10988;BME280;5547;42.672;23.230;2023-12-07T04:14:34;92806.19;;;1.84;100.00
10988;BME280;5547;42.672;23.230;2023-12-07T04:17:35;92828.44;;;2.01;100.00
10988;BME280;5547;42.672;23.230;2023-12-07T04:20:35;92848.41;;;2.13;100.00
10988;BME280;5547;42.672;23.230;2023-12-07T04:23:36;92839.59;;;1.91;100.00
10988;BME280;5547;42.672;23.230;2023-12-07T04:26:36;92837.78;;;1.95;100.00
10988;BME280;5547;42.672;23.230;2023-12-07T04:29:36;92810.63;;;1.76;100.00
10988;BME280;5547;42.672;23.230;2023-12-07T04:32:37;92862.69;;;2.15;100.00
10988;BME280;5547;42.672;23.230;2023-12-07T04:35:39;92861.56;;;2.16;100.00
10988;BME280;5547;42.672;23.230;2023-12-07T04:38:39;92858.38;;;1.96;100.00
10988;BME280;5547;42.672;23.230;2023-12-07T04:41:40;92864.94;;;2.17;100.00
10988;BME280;5547;42.672;23.230;2023-12-07T04:44:40;92859.28;;;2.11;100.00
10988;BME280;5547;42.672;23.230;2023-12-07T04:47:41;92868.75;;;2.23;100.00
10988;BME280;5547;42.672;23.230;2023-12-07T04:50:41;92865.31;;;2.15;100.00
10988;BME280;5547;42.672;23.230;2023-12-07T04:53:41;92744.69;;;1.33;100.00
10988;BME280;5547;42.672;23.230;2023-12-07T04:56:42;92829.94;;;1.98;100.00
10988;BME280;5547;42.672;23.230;2023-12-07T04:59:42;92822.44;;;2.00;100.00
10988;BME280;5547;42.672;23.230;2023-12-07T05:02:47;92872.19;;;2.30;100.00
10988;BME280;5547;42.672;23.230;2023-12-07T05:05:48;92848.41;;;2.09;100.00
10988;BME280;5547;42.672;23.230;2023-12-07T05:08:50;92887.19;;;2.30;100.00
10988;BME280;5547;42.672;23.230;2023-12-07T05:11:50;92858.59;;;2.18;100.00
10988;BME280;5547;42.672;23.230;2023-12-07T05:14:51;92861.97;;;2.22;100.00
10988;BME280;5547;42.672;23.230;2023-12-07T05:17:51;92875.22;;;2.33;100.00
10988;BME280;5547;42.672;23.230;2023-12-07T05:20:52;92883.41;;;2.27;100.00
10988;BME280;5547;42.672;23.230;2023-12-07T05:23:52;92821.19;;;1.83;100.00
10988;BME280;5547;42.672;23.230;2023-12-07T05:26:53;92896.19;;;2.29;100.00
10988;BME280;5547;42.672;23.230;2023-12-07T05:29:53;92899.56;;;2.33;100.00
10988;BME280;5547;42.672;23.230;2023-12-07T05:32:53;92864.53;;;2.15;100.00
10988;BME280;5547;42.672;23.230;2023-12-07T05:35:54;92904.44;;;2.31;100.00
10988;BME280;5547;42.672;23.230;2023-12-07T05:38:54;92892.47;;;2.34;100.00
10988;BME280;5547;42.672;23.230;2023-12-07T05:41:55;92911.19;;;2.32;100.00
10988;BME280;5547;42.672;23.230;2023-12-07T05:44:55;92901.44;;;2.33;100.00
10988;BME280;5547;42.672;23.230;2023-12-07T05:47:56;92909.66;;;2.27;100.00
10988;BME280;5547;42.672;23.230;2023-12-07T05:50:57;92896.47;;;2.20;100.00
10988;BME280;5547;42.672;23.230;2023-12-07T05:53:57;92911.59;;;2.34;100.00
10988;BME280;5547;42.672;23.230;2023-12-07T05:56:57;92885.53;;;2.15;100.00
10988;BME280;5547;42.672;23.230;2023-12-07T05:59:58;92904.41;;;2.27;100.00
10988;BME280;5547;42.672;23.230;2023-12-07T06:02:58;92895.31;;;2.18;100.00
10988;BME280;5547;42.672;23.230;2023-12-07T06:05:59;92917.25;;;2.36;100.00
10988;BME280;5547;42.672;23.230;2023-12-07T06:08:59;92887.88;;;2.23;100.00
10988;BME280;5547;42.672;23.230;2023-12-07T06:12:00;92897.69;;;2.30;100.00
10988;BME280;5547;42.672;23.230;2023-12-07T06:15:00;92913.53;;;2.44;100.00
10988;BME280;5547;42.672;23.230;2023-12-07T06:18:01;92915.06;;;2.45;100.00
10988;BME280;5547;42.672;23.230;2023-12-07T06:21:01;92906.81;;;2.47;100.00
10988;BME280;5547;42.672;23.230;2023-12-07T06:24:03;92924.16;;;2.55;100.00
10988;BME280;5547;42.672;23.230;2023-12-07T06:27:04;92876.69;;;2.30;100.00
10988;BME280;5547;42.672;23.230;2023-12-07T06:30:05;92895.50;;;2.39;100.00
10988;BME280;5547;42.672;23.230;2023-12-07T06:33:06;92906.75;;;2.40;100.00
10988;BME280;5547;42.672;23.230;2023-12-07T06:36:07;92924.56;;;2.61;100.00
10988;BME280;5547;42.672;23.230;2023-12-07T06:39:07;92928.75;;;2.69;100.00
10988;BME280;5547;42.672;23.230;2023-12-07T06:42:07;92933.28;;;2.72;100.00
10988;BME280;5547;42.672;23.230;2023-12-07T06:45:08;92933.72;;;2.81;100.00
10988;BME280;5547;42.672;23.230;2023-12-07T06:48:13;92920.53;;;2.74;100.00
10988;BME280;5547;42.672;23.230;2023-12-07T06:51:14;92940.94;;;2.91;100.00
10988;BME280;5547;42.672;23.230;2023-12-07T06:54:14;92932.25;;;2.84;100.00
10988;BME280;5547;42.672;23.230;2023-12-07T06:57:14;92943.53;;;2.84;100.00
10988;BME280;5547;42.672;23.230;2023-12-07T07:00:15;92937.16;;;2.85;100.00
10988;BME280;5547;42.672;23.230;2023-12-07T07:03:17;92893.75;;;2.54;100.00
10988;BME280;5547;42.672;23.230;2023-12-07T07:06:18;92881.34;;;2.47;100.00
10988;BME280;5547;42.672;23.230;2023-12-07T07:09:18;92906.22;;;2.68;100.00
10988;BME280;5547;42.672;23.230;2023-12-07T07:12:18;92908.94;;;2.75;100.00
10988;BME280;5547;42.672;23.230;2023-12-07T07:15:19;92962.94;;;3.24;100.00
10988;BME280;5547;42.672;23.230;2023-12-07T07:18:20;92955.69;;;3.07;100.00
10988;BME280;5547;42.672;23.230;2023-12-07T07:21:24;92960.09;;;2.95;100.00
10988;BME280;5547;42.672;23.230;2023-12-07T07:24:24;92955.94;;;2.91;100.00
10988;BME280;5547;42.672;23.230;2023-12-07T07:27:24;92965.09;;;3.08;100.00
10988;BME280;5547;42.672;23.230;2023-12-07T07:30:25;92931.47;;;2.80;100.00
10988;BME280;5547;42.672;23.230;2023-12-07T07:33:26;92941.31;;;2.45;100.00
10988;BME280;5547;42.672;23.230;2023-12-07T07:36:27;92972.97;;;2.63;100.00
10988;BME280;5547;42.672;23.230;2023-12-07T07:39:27;92960.16;;;2.58;100.00
10988;BME280;5547;42.672;23.230;2023-12-07T07:42:27;92966.91;;;2.56;100.00
10988;BME280;5547;42.672;23.230;2023-12-07T07:45:28;92927.63;;;2.25;100.00
10988;BME280;5547;42.672;23.230;2023-12-07T07:48:28;92958.56;;;2.46;100.00
10988;BME280;5547;42.672;23.230;2023-12-07T07:51:28;92980.06;;;2.59;100.00
10988;BME280;5547;42.672;23.230;2023-12-07T07:54:29;92944.44;;;2.21;100.00
10988;BME280;5547;42.672;23.230;2023-12-07T07:57:30;92982.81;;;2.33;100.00
10988;BME280;5547;42.672;23.230;2023-12-07T08:00:31;92992.81;;;2.23;100.00
10988;BME280;5547;42.672;23.230;2023-12-07T08:03:33;92993.50;;;2.17;100.00
10988;BME280;5547;42.672;23.230;2023-12-07T08:06:33;92973.00;;;1.92;100.00
10988;BME280;5547;42.672;23.230;2023-12-07T08:09:34;92994.06;;;1.99;100.00
10988;BME280;5547;42.672;23.230;2023-12-07T08:12:34;92989.16;;;1.94;100.00
10988;BME280;5547;42.672;23.230;2023-12-07T08:15:35;93001.56;;;2.01;100.00
10988;BME280;5547;42.672;23.230;2023-12-07T08:18:35;92972.03;;;1.74;100.00
10988;BME280;5547;42.672;23.230;2023-12-07T08:21:36;92999.75;;;2.05;100.00
10988;BME280;5547;42.672;23.230;2023-12-07T08:24:39;92996.72;;;2.03;100.00
10988;BME280;5547;42.672;23.230;2023-12-07T08:27:39;93013.44;;;1.91;100.00
10988;BME280;5547;42.672;23.230;2023-12-07T08:30:40;93015.22;;;1.83;100.00
10988;BME280;5547;42.672;23.230;2023-12-07T08:33:40;93010.34;;;1.82;100.00
10988;BME280;5547;42.672;23.230;2023-12-07T08:36:41;92999.66;;;1.67;100.00
10988;BME280;5547;42.672;23.230;2023-12-07T08:39:41;93017.00;;;1.76;100.00
10988;BME280;5547;42.672;23.230;2023-12-07T08:42:45;93025.81;;;1.64;100.00
10988;BME280;5547;42.672;23.230;2023-12-07T08:45:46;92974.41;;;1.25;100.00
10988;BME280;5547;42.672;23.230;2023-12-07T08:48:46;93012.44;;;1.42;100.00
10988;BME280;5547;42.672;23.230;2023-12-07T08:51:47;93022.66;;;1.51;100.00
10988;BME280;5547;42.672;23.230;2023-12-07T08:54:47;93035.03;;;1.51;100.00
10988;BME280;5547;42.672;23.230;2023-12-07T08:57:48;93019.53;;;1.42;100.00
10988;BME280;5547;42.672;23.230;2023-12-07T09:00:48;92992.69;;;0.99;100.00
10988;BME280;5547;42.672;23.230;2023-12-07T09:03:49;93039.91;;;1.25;100.00
10988;BME280;5547;42.672;23.230;2023-12-07T09:06:49;92902.53;;;0.24;100.00
10988;BME280;5547;42.672;23.230;2023-12-07T09:09:49;93034.56;;;1.18;100.00
10988;BME280;5547;42.672;23.230;2023-12-07T09:12:50;93028.38;;;1.07;100.00
10988;BME280;5547;42.672;23.230;2023-12-07T09:15:50;92995.44;;;0.83;100.00
10988;BME280;5547;42.672;23.230;2023-12-07T09:18:51;92956.44;;;0.51;100.00
10988;BME280;5547;42.672;23.230;2023-12-07T09:21:51;92999.59;;;0.61;100.00
10988;BME280;5547;42.672;23.230;2023-12-07T09:24:51;93030.25;;;0.83;100.00
10988;BME280;5547;42.672;23.230;2023-12-07T09:27:52;92983.34;;;0.52;100.00
10988;BME280;5547;42.672;23.230;2023-12-07T09:30:52;93004.59;;;0.47;100.00
10988;BME280;5547;42.672;23.230;2023-12-07T09:33:53;92986.00;;;0.32;100.00
10988;BME280;5547;42.672;23.230;2023-12-07T09:37:09;93030.28;;;0.64;100.00
10988;BME280;5547;42.672;23.230;2023-12-07T09:40:17;93031.28;;;0.56;100.00
10988;BME280;5547;42.672;23.230;2023-12-07T09:43:18;93021.16;;;0.54;100.00
10988;BME280;5547;42.672;23.230;2023-12-07T09:46:19;93026.84;;;0.60;100.00
10988;BME280;5547;42.672;23.230;2023-12-07T09:49:20;92974.69;;;0.05;100.00
10988;BME280;5547;42.672;23.230;2023-12-07T09:52:21;93028.00;;;0.39;100.00
10988;BME280;5547;42.672;23.230;2023-12-07T09:55:23;92984.38;;;0.05;100.00
10988;BME280;5547;42.672;23.230;2023-12-07T09:58:23;92989.88;;;0.19;100.00
10988;BME280;5547;42.672;23.230;2023-12-07T10:01:33;93002.19;;;0.18;100.00
10988;BME280;5547;42.672;23.230;2023-12-07T10:04:36;92906.41;;;-0.52;100.00
10988;BME280;5547;42.672;23.230;2023-12-07T10:07:40;93010.81;;;0.19;100.00
10988;BME280;5547;42.672;23.230;2023-12-07T10:10:40;93028.69;;;0.36;100.00
10988;BME280;5547;42.672;23.230;2023-12-07T10:13:41;93030.47;;;0.32;100.00
10988;BME280;5547;42.672;23.230;2023-12-07T10:17:00;92988.09;;;0.04;100.00
10988;BME280;5547;42.672;23.230;2023-12-07T10:20:07;93011.47;;;0.16;100.00
10988;BME280;5547;42.672;23.230;2023-12-07T10:23:09;93000.59;;;0.14;100.00
10988;BME280;5547;42.672;23.230;2023-12-07T10:26:10;93020.44;;;0.15;100.00
10988;BME280;5547;42.672;23.230;2023-12-07T10:29:11;93021.69;;;0.02;100.00
10988;BME280;5547;42.672;23.230;2023-12-07T10:32:11;93002.63;;;-0.18;100.00
10988;BME280;5547;42.672;23.230;2023-12-07T10:35:11;92984.81;;;-0.32;100.00
10988;BME280;5547;42.672;23.230;2023-12-07T10:38:12;92976.25;;;-0.49;100.00
10988;BME280;5547;42.672;23.230;2023-12-07T10:41:15;93005.50;;;-0.24;100.00
10988;BME280;5547;42.672;23.230;2023-12-07T10:44:16;93022.38;;;-0.02;100.00
10988;BME280;5547;42.672;23.230;2023-12-07T10:47:18;93026.06;;;-0.03;100.00
10988;BME280;5547;42.672;23.230;2023-12-07T10:50:22;93021.69;;;0.02;100.00
10988;BME280;5547;42.672;23.230;2023-12-07T10:53:37;93028.69;;;0.17;100.00
10988;BME280;5547;42.672;23.230;2023-12-07T10:56:44;93022.44;;;0.02;100.00
10988;BME280;5547;42.672;23.230;2023-12-07T10:59:45;92983.97;;;-0.36;100.00
10988;BME280;5547;42.672;23.230;2023-12-07T11:02:47;93005.25;;;-0.18;100.00
10988;BME280;5547;42.672;23.230;2023-12-07T11:05:48;92971.38;;;-0.31;100.00
10988;BME280;5547;42.672;23.230;2023-12-07T11:08:51;93032.63;;;0.07;100.00
10988;BME280;5547;42.672;23.230;2023-12-07T11:12:38;93029.31;;;0.10;100.00
10988;BME280;5547;42.672;23.230;2023-12-07T11:15:37;92976.59;;;-0.50;100.00
10988;BME280;5547;42.672;23.230;2023-12-07T11:18:37;93006.41;;;-0.16;100.00
10988;BME280;5547;42.672;23.230;2023-12-07T11:21:38;93009.59;;;-0.07;100.00
10988;BME280;5547;42.672;23.230;2023-12-07T11:24:52;93033.53;;;0.15;100.00
10988;BME280;5547;42.672;23.230;2023-12-07T11:28:02;93028.09;;;0.24;100.00
10988;BME280;5547;42.672;23.230;2023-12-07T11:31:03;93031.44;;;0.24;100.00
10988;BME280;5547;42.672;23.230;2023-12-07T11:34:06;93003.88;;;0.07;100.00
10988;BME280;5547;42.672;23.230;2023-12-07T11:37:09;92959.78;;;-0.14;100.00
10988;BME280;5547;42.672;23.230;2023-12-07T11:40:09;93009.28;;;0.18;100.00
10988;BME280;5547;42.672;23.230;2023-12-07T11:43:36;93012.31;;;0.20;100.00
10988;BME280;5547;42.672;23.230;2023-12-07T11:46:40;92998.56;;;0.04;100.00
10988;BME280;5547;42.672;23.230;2023-12-07T11:49:40;93016.72;;;0.16;100.00
10988;BME280;5547;42.672;23.230;2023-12-07T11:52:41;93002.84;;;0.12;100.00
10988;BME280;5547;42.672;23.230;2023-12-07T11:55:41;92990.84;;;0.11;100.00
10988;BME280;5547;42.672;23.230;2023-12-07T11:58:41;93018.44;;;0.08;100.00
10988;BME280;5547;42.672;23.230;2023-12-07T12:01:48;92989.75;;;-0.08;100.00
10988;BME280;5547;42.672;23.230;2023-12-07T12:04:48;93018.78;;;0.26;100.00
10988;BME280;5547;42.672;23.230;2023-12-07T12:07:48;93021.81;;;0.28;100.00
10988;BME280;5547;42.672;23.230;2023-12-07T12:10:53;93015.75;;;0.24;100.00
10988;BME280;5547;42.672;23.230;2023-12-07T12:13:57;93020.78;;;0.33;100.00
10988;BME280;5547;42.672;23.230;2023-12-07T12:16:57;93023.53;;;0.01;100.00
10988;BME280;5547;42.672;23.230;2023-12-07T12:19:59;93004.53;;;0.04;100.00
10988;BME280;5547;42.672;23.230;2023-12-07T12:23:00;93003.09;;;0.07;100.00
10988;BME280;5547;42.672;23.230;2023-12-07T12:26:01;93018.25;;;0.17;100.00
10988;BME280;5547;42.672;23.230;2023-12-07T12:29:02;92988.19;;;0.07;100.00
10988;BME280;5547;42.672;23.230;2023-12-07T12:32:03;93014.50;;;0.18;100.00
10988;BME280;5547;42.672;23.230;2023-12-07T12:35:03;92988.03;;;-0.19;100.00
10988;BME280;5547;42.672;23.230;2023-12-07T12:38:11;93017.44;;;-0.07;100.00
10988;BME280;5547;42.672;23.230;2023-12-07T12:41:12;92927.72;;;-0.69;100.00
10988;BME280;5547;42.672;23.230;2023-12-07T12:44:12;93026.72;;;-0.09;100.00
10988;BME280;5547;42.672;23.230;2023-12-07T12:47:13;92995.81;;;-0.23;100.00
10988;BME280;5547;42.672;23.230;2023-12-07T12:53:41;92996.00;;;-0.32;100.00
10988;BME280;5547;42.672;23.230;2023-12-07T12:56:42;93001.16;;;-0.35;100.00
10988;BME280;5547;42.672;23.230;2023-12-07T12:59:47;93036.09;;;-0.24;100.00
10988;BME280;5547;42.672;23.230;2023-12-07T13:02:48;93015.53;;;-0.45;100.00
10988;BME280;5547;42.672;23.230;2023-12-07T13:05:49;92932.44;;;-1.10;100.00
10988;BME280;5547;42.672;23.230;2023-12-07T13:08:49;93016.31;;;-0.60;100.00
10988;BME280;5547;42.672;23.230;2023-12-07T13:11:50;92998.22;;;-0.69;100.00
10988;BME280;5547;42.672;23.230;2023-12-07T13:14:50;93046.72;;;-0.52;100.00
10988;BME280;5547;42.672;23.230;2023-12-07T13:17:51;93006.72;;;-0.72;100.00
10988;BME280;5547;42.672;23.230;2023-12-07T13:20:51;93014.28;;;-0.67;100.00
10988;BME280;5547;42.672;23.230;2023-12-07T13:23:51;92999.25;;;-0.74;100.00
10988;BME280;5547;42.672;23.230;2023-12-07T13:26:52;93049.25;;;-0.72;100.00
10988;BME280;5547;42.672;23.230;2023-12-07T13:29:52;93053.81;;;-0.69;100.00
10988;BME280;5547;42.672;23.230;2023-12-07T13:32:53;93054.41;;;-0.75;100.00
10988;BME280;5547;42.672;23.230;2023-12-07T13:35:53;93049.19;;;-0.75;100.00
10988;BME280;5547;42.672;23.230;2023-12-07T13:38:55;93051.38;;;-0.77;100.00
10988;BME280;5547;42.672;23.230;2023-12-07T13:41:56;93054.56;;;-0.68;100.00
10988;BME280;5547;42.672;23.230;2023-12-07T13:44:57;93049.78;;;-0.82;100.00
10988;BME280;5547;42.672;23.230;2023-12-07T13:47:58;93036.47;;;-0.93;100.00
10988;BME280;5547;42.672;23.230;2023-12-07T13:50:58;93009.88;;;-1.14;100.00
10988;BME280;5547;42.672;23.230;2023-12-07T13:53:59;93016.53;;;-1.01;100.00
10988;BME280;5547;42.672;23.230;2023-12-07T13:56:59;92914.88;;;-1.77;100.00
10988;BME280;5547;42.672;23.230;2023-12-07T14:00:00;93063.34;;;-0.76;100.00
10988;BME280;5547;42.672;23.230;2023-12-07T14:03:00;93070.78;;;-0.78;100.00
10988;BME280;5547;42.672;23.230;2023-12-07T14:06:00;93070.78;;;-0.78;100.00
10988;BME280;5547;42.672;23.230;2023-12-07T14:09:02;93084.16;;;-0.80;100.00
10988;BME280;5547;42.672;23.230;2023-12-07T14:12:03;93080.97;;;-0.89;100.00
10988;BME280;5547;42.672;23.230;2023-12-07T14:15:04;93079.00;;;-0.76;100.00
10988;BME280;5547;42.672;23.230;2023-12-07T14:18:05;93087.94;;;-0.77;100.00
10988;BME280;5547;42.672;23.230;2023-12-07T14:21:06;93069.22;;;-1.11;100.00
10988;BME280;5547;42.672;23.230;2023-12-07T14:24:06;93080.63;;;-0.88;100.00
10988;BME280;5547;42.672;23.230;2023-12-07T14:27:08;93046.34;;;-1.18;100.00
10988;BME280;5547;42.672;23.230;2023-12-07T14:30:09;92985.19;;;-1.64;100.00
10988;BME280;5547;42.672;23.230;2023-12-07T14:33:10;93101.09;;;-0.90;100.00
10988;BME280;5547;42.672;23.230;2023-12-07T14:36:11;93009.44;;;-1.48;100.00
10988;BME280;5547;42.672;23.230;2023-12-07T14:39:13;93099.66;;;-0.87;100.00
10988;BME280;5547;42.672;23.230;2023-12-07T14:42:17;93108.56;;;-0.88;100.00
10988;BME280;5547;42.672;23.230;2023-12-07T14:45:17;93080.59;;;-1.19;100.00
10988;BME280;5547;42.672;23.230;2023-12-07T14:48:20;93110.50;;;-1.01;100.00
10988;BME280;5547;42.672;23.230;2023-12-07T14:51:21;93108.66;;;-1.00;100.00
10988;BME280;5547;42.672;23.230;2023-12-07T14:54:22;93094.50;;;-1.15;100.00
10988;BME280;5547;42.672;23.230;2023-12-07T14:57:23;93074.25;;;-1.34;100.00
10988;BME280;5547;42.672;23.230;2023-12-07T15:00:24;93113.38;;;-1.06;100.00
10988;BME280;5547;42.672;23.230;2023-12-07T15:03:26;93119.78;;;-0.88;100.00
10988;BME280;5547;42.672;23.230;2023-12-07T15:06:26;93119.78;;;-0.88;100.00
10988;BME280;5547;42.672;23.230;2023-12-07T15:09:27;93111.25;;;-1.16;100.00
10988;BME280;5547;42.672;23.230;2023-12-07T15:12:28;93121.28;;;-1.02;100.00
10988;BME280;5547;42.672;23.230;2023-12-07T15:15:30;93096.69;;;-1.17;100.00
10988;BME280;5547;42.672;23.230;2023-12-07T15:18:30;93124.41;;;-0.97;100.00
10988;BME280;5547;42.672;23.230;2023-12-07T15:21:34;93128.03;;;-1.01;100.00
10988;BME280;5547;42.672;23.230;2023-12-07T15:24:34;93133.25;;;-1.01;100.00
10988;BME280;5547;42.672;23.230;2023-12-07T15:27:35;93098.00;;;-1.23;100.00
10988;BME280;5547;42.672;23.230;2023-12-07T15:30:36;93128.25;;;-1.07;100.00
10988;BME280;5547;42.672;23.230;2023-12-07T15:33:36;93131.22;;;-1.08;100.00
10988;BME280;5547;42.672;23.230;2023-12-07T15:36:38;93124.88;;;-1.07;100.00
10988;BME280;5547;42.672;23.230;2023-12-07T15:39:39;93104.41;;;-1.21;100.00
10988;BME280;5547;42.672;23.230;2023-12-07T15:42:40;93133.41;;;-1.10;100.00
10988;BME280;5547;42.672;23.230;2023-12-07T15:45:41;93119.91;;;-1.12;100.00
10988;BME280;5547;42.672;23.230;2023-12-07T15:48:41;93138.03;;;-1.03;100.00
10988;BME280;5547;42.672;23.230;2023-12-07T15:51:41;93135.59;;;-1.12;100.00
10988;BME280;5547;42.672;23.230;2023-12-07T15:54:42;93121.19;;;-1.22;100.00
10988;BME280;5547;42.672;23.230;2023-12-07T15:57:44;93145.53;;;-1.02;100.00
10988;BME280;5547;42.672;23.230;2023-12-07T16:00:44;93149.13;;;-1.07;100.00
10988;BME280;5547;42.672;23.230;2023-12-07T16:03:45;93151.91;;;-0.99;100.00